createdAt,value
2022-10-10T00:00:17.261Z,62.15
2022-10-10T00:02:44.821Z,61.81
2022-10-10T00:05:12.390Z,62.18
2022-10-10T00:07:40.542Z,62.12
2022-10-10T00:10:08.117Z,61.51
2022-10-10T00:12:35.640Z,61.74
2022-10-10T00:15:03.228Z,61.48
2022-10-10T00:17:30.767Z,61.78
2022-10-10T00:19:58.608Z,61.63
2022-10-10T00:22:26.624Z,61.84
2022-10-10T00:24:54.195Z,61.53
2022-10-10T00:27:21.755Z,61.43
2022-10-10T00:29:49.355Z,61.96
2022-10-10T00:32:17.479Z,61.83
2022-10-10T00:34:45.045Z,61.66
2022-10-10T00:37:12.638Z,61.52
2022-10-10T00:39:40.186Z,61.96
2022-10-10T00:42:07.743Z,61.50
2022-10-10T00:44:37.582Z,61.73
2022-10-10T00:47:05.142Z,61.77
2022-10-10T00:49:33.138Z,61.89
2022-10-10T00:52:00.752Z,62.32
2022-10-10T00:54:28.338Z,62.73
2022-10-10T00:56:56.441Z,62.79
2022-10-10T00:59:24.000Z,63.21
2022-10-10T01:01:51.535Z,63.21
2022-10-10T01:04:19.123Z,63.97
2022-10-10T01:06:46.720Z,64.46
2022-10-10T01:09:14.920Z,64.65
2022-10-10T01:11:42.488Z,64.55
2022-10-10T01:14:10.080Z,64.80
2022-10-10T01:16:37.612Z,65.38
2022-10-10T01:19:05.265Z,65.28
2022-10-10T01:21:33.384Z,65.83
2022-10-10T01:24:00.929Z,65.96
2022-10-10T01:26:28.471Z,66.05
2022-10-10T01:28:56.459Z,66.10
2022-10-10T01:31:24.326Z,66.07
2022-10-10T01:33:52.299Z,66.17
2022-10-10T01:36:19.875Z,66.74
2022-10-10T01:38:50.734Z,66.87
2022-10-10T01:41:18.291Z,66.74
2022-10-10T01:43:45.894Z,66.20
2022-10-10T01:46:13.978Z,67.11
2022-10-10T01:48:41.518Z,66.78
2022-10-10T01:51:09.520Z,66.68
2022-10-10T01:53:37.049Z,67.18
2022-10-10T01:56:04.614Z,67.04
2022-10-10T01:58:32.853Z,66.89
2022-10-10T02:01:00.459Z,66.67
2022-10-10T02:03:28.022Z,67.16
2022-10-10T02:05:55.581Z,66.92
2022-10-10T02:08:23.079Z,66.92
2022-10-10T02:10:50.813Z,67.05
2022-10-10T02:13:18.902Z,66.90
2022-10-10T02:15:46.419Z,66.96
2022-10-10T02:18:13.970Z,67.04
2022-10-10T02:20:41.564Z,66.57
2022-10-10T02:23:09.435Z,66.60
2022-10-10T02:25:36.949Z,66.09
2022-10-10T02:28:04.553Z,65.83
2022-10-10T02:30:32.160Z,65.50
2022-10-10T02:32:59.727Z,65.09
2022-10-10T02:35:27.868Z,64.48
2022-10-10T02:37:55.403Z,64.48
2022-10-10T02:40:22.935Z,64.16
2022-10-10T02:42:51.184Z,64.17
2022-10-10T02:45:18.913Z,64.29
2022-10-10T02:47:46.787Z,64.63
2022-10-10T02:50:14.365Z,63.96
2022-10-10T02:52:41.960Z,63.89
2022-10-10T02:55:09.893Z,63.72
2022-10-10T02:57:37.505Z,63.94
2022-10-10T03:00:05.358Z,64.00
2022-10-10T03:02:32.880Z,63.74
2022-10-10T03:05:00.691Z,63.76
2022-10-10T03:07:28.226Z,63.74
2022-10-10T03:09:55.751Z,64.16
2022-10-10T03:12:23.502Z,64.43
2022-10-10T03:14:51.036Z,64.66
2022-10-10T03:17:19.068Z,65.26
2022-10-10T03:19:46.636Z,65.63
2022-10-10T03:22:14.165Z,65.52
2022-10-10T03:24:42.291Z,65.81
2022-10-10T03:27:09.842Z,65.72
2022-10-10T03:29:37.330Z,65.77
2022-10-10T03:32:07.953Z,66.13
2022-10-10T03:34:38.366Z,66.63
2022-10-10T03:37:06.673Z,66.85
2022-10-10T03:39:34.574Z,67.24
2022-10-10T03:42:02.145Z,67.45
2022-10-10T03:44:29.676Z,68.09
2022-10-10T03:46:57.266Z,67.97
2022-10-10T03:49:25.152Z,68.08
2022-10-10T03:51:53.713Z,68.21
2022-10-10T03:54:21.270Z,68.54
2022-10-10T03:56:48.855Z,69.07
2022-10-10T03:59:16.391Z,68.91
2022-10-10T04:01:46.225Z,68.92
2022-10-10T04:04:13.795Z,68.37
2022-10-10T04:06:41.505Z,68.89
2022-10-10T04:09:09.073Z,69.10
2022-10-10T04:11:38.706Z,68.87
2022-10-10T04:14:06.613Z,69.47
2022-10-10T04:16:34.124Z,69.24
2022-10-10T04:19:01.719Z,69.29
2022-10-10T04:21:29.253Z,69.24
2022-10-10T04:23:57.204Z,69.25
2022-10-10T04:26:25.295Z,68.91
2022-10-10T04:28:52.862Z,69.39
2022-10-10T04:31:20.439Z,69.06
2022-10-10T04:33:47.984Z,69.23
2022-10-10T04:36:15.496Z,69.40
2022-10-10T04:38:44.177Z,69.25
2022-10-10T04:41:11.775Z,69.21
2022-10-10T04:43:39.310Z,68.96
2022-10-10T04:46:07.175Z,69.66
2022-10-10T04:48:34.733Z,69.09
2022-10-10T04:51:02.912Z,69.35
2022-10-10T04:53:30.454Z,69.21
2022-10-10T04:55:58.019Z,68.81
2022-10-10T04:58:25.607Z,69.46
2022-10-10T05:00:53.165Z,69.35
2022-10-10T05:03:21.330Z,69.30
2022-10-10T05:05:48.864Z,69.39
2022-10-10T05:08:16.395Z,69.39
2022-10-10T05:10:43.973Z,69.28
2022-10-10T05:13:11.478Z,69.38
2022-10-10T05:15:39.587Z,69.51
2022-10-10T05:18:07.132Z,69.42
2022-10-10T05:20:34.648Z,69.25
2022-10-10T05:23:02.167Z,69.20
2022-10-10T05:25:30.106Z,69.38
2022-10-10T05:27:58.263Z,69.58
2022-10-10T05:30:26.144Z,69.42
2022-10-10T05:32:53.913Z,69.41
2022-10-10T05:35:21.615Z,69.69
2022-10-10T05:37:49.169Z,69.48
2022-10-10T05:40:17.310Z,69.65
2022-10-10T05:42:44.837Z,69.11
2022-10-10T05:45:12.429Z,69.32
2022-10-10T05:47:40.029Z,69.32
2022-10-10T05:50:07.598Z,69.12
2022-10-10T05:52:36.883Z,69.17
2022-10-10T05:55:04.519Z,69.55
2022-10-10T05:57:32.113Z,69.29
2022-10-10T05:59:59.670Z,69.40
2022-10-10T06:02:27.289Z,69.13
2022-10-10T06:04:55.522Z,69.18
2022-10-10T06:07:23.088Z,68.97
2022-10-10T06:09:50.778Z,69.29
2022-10-10T06:12:18.335Z,69.29
2022-10-10T06:14:46.309Z,69.19
2022-10-10T06:17:14.481Z,69.11
2022-10-10T06:19:42.080Z,68.95
2022-10-10T06:22:09.663Z,68.80
2022-10-10T06:24:37.277Z,68.47
2022-10-10T06:27:04.805Z,68.31
2022-10-10T06:29:33.053Z,67.79
2022-10-10T06:32:00.682Z,67.59
2022-10-10T06:34:28.266Z,66.97
2022-10-10T06:36:55.884Z,66.81
2022-10-10T06:39:23.539Z,66.20
2022-10-10T06:41:51.768Z,66.17
2022-10-10T06:44:19.402Z,65.79
2022-10-10T06:46:47.080Z,65.35
2022-10-10T06:49:14.725Z,65.10
2022-10-10T06:51:42.405Z,64.90
2022-10-10T06:54:10.462Z,64.95
2022-10-10T06:56:38.057Z,64.88
2022-10-10T06:59:06.100Z,64.89
2022-10-10T07:01:33.812Z,64.52
2022-10-10T07:04:01.492Z,64.07
2022-10-10T07:06:34.528Z,64.52
2022-10-10T07:09:02.596Z,63.96
2022-10-10T07:11:30.345Z,64.17
2022-10-10T07:13:58.043Z,64.42
2022-10-10T07:16:26.246Z,64.61
2022-10-10T07:18:54.099Z,64.27
2022-10-10T07:21:22.117Z,64.46
2022-10-10T07:23:49.800Z,64.37
2022-10-10T07:26:21.103Z,64.07
2022-10-10T07:28:48.794Z,64.01
2022-10-10T07:31:17.994Z,64.46
2022-10-10T07:33:49.891Z,64.01
2022-10-10T07:36:18.544Z,63.78
2022-10-10T07:38:46.230Z,63.33
2022-10-10T07:41:14.085Z,63.50
2022-10-10T07:43:43.289Z,63.83
2022-10-10T07:46:12.276Z,63.68
2022-10-10T07:48:40.248Z,63.55
2022-10-10T07:51:07.918Z,63.38
2022-10-10T07:53:35.641Z,62.90
2022-10-10T07:56:03.791Z,62.89
2022-10-10T07:58:31.568Z,63.02
2022-10-10T08:00:59.325Z,62.57
2022-10-10T08:03:27.029Z,62.51
2022-10-10T08:05:54.829Z,62.26
2022-10-10T08:08:22.955Z,62.54
2022-10-10T08:10:50.651Z,62.15
2022-10-10T08:13:18.494Z,62.75
2022-10-10T08:15:46.223Z,62.58
2022-10-10T08:18:14.033Z,62.31
2022-10-10T08:20:42.031Z,61.61
2022-10-10T08:23:09.782Z,61.82
2022-10-10T08:25:37.961Z,61.05
2022-10-10T08:28:05.868Z,60.56
2022-10-10T08:30:33.682Z,61.05
2022-10-10T08:33:02.262Z,60.18
2022-10-10T08:35:30.106Z,59.97
2022-10-10T08:37:57.949Z,60.24
2022-10-10T08:40:29.019Z,59.79
2022-10-10T08:42:57.113Z,60.00
2022-10-10T08:45:25.246Z,60.07
2022-10-10T08:47:53.592Z,60.14
2022-10-10T08:50:21.505Z,60.37
2022-10-10T08:52:49.880Z,60.14
2022-10-10T08:55:17.959Z,60.18
2022-10-10T08:57:48.098Z,60.31
2022-10-10T09:00:16.634Z,60.42
2022-10-10T09:02:53.706Z,60.80
2022-10-10T09:05:22.265Z,59.77
2022-10-10T09:07:50.758Z,60.34
2022-10-10T09:10:18.621Z,60.13
2022-10-10T09:12:46.359Z,60.24
2022-10-10T09:15:14.087Z,60.23
2022-10-10T09:17:41.799Z,60.00
2022-10-10T09:20:10.301Z,60.66
2022-10-10T09:22:38.235Z,60.53
2022-10-10T09:25:06.092Z,60.00
2022-10-10T09:27:33.983Z,59.86
2022-10-10T09:30:02.277Z,60.53
2022-10-10T09:32:30.386Z,60.15
2022-10-10T09:34:58.090Z,60.02
2022-10-10T09:37:45.810Z,60.11
2022-10-10T09:40:13.701Z,60.11
2022-10-10T09:42:42.602Z,59.79
2022-10-10T09:45:10.382Z,59.61
2022-10-10T09:47:38.332Z,59.24
2022-10-10T09:50:06.433Z,59.44
2022-10-10T09:52:34.251Z,59.00
2022-10-10T09:55:02.614Z,58.39
2022-10-10T09:57:30.557Z,57.96
2022-10-10T10:00:02.244Z,56.98
2022-10-10T10:02:32.505Z,55.45
2022-10-10T10:05:00.636Z,54.27
2022-10-10T10:07:28.922Z,53.64
2022-10-10T10:09:57.249Z,53.28
2022-10-10T10:12:25.434Z,53.13
2022-10-10T10:14:53.364Z,53.46
2022-10-10T10:17:21.469Z,54.62
2022-10-10T10:19:49.757Z,55.09
2022-10-10T10:22:19.009Z,55.37
2022-10-10T10:24:47.902Z,55.37
2022-10-10T10:27:15.688Z,54.64
2022-10-10T10:29:45.178Z,53.82
2022-10-10T10:32:13.986Z,52.03
2022-10-10T10:34:41.847Z,51.19
2022-10-10T10:37:14.593Z,50.80
2022-10-10T10:39:43.074Z,50.68
2022-10-10T10:42:10.839Z,50.88
2022-10-10T10:44:39.467Z,51.80
2022-10-10T10:47:07.361Z,52.14
2022-10-10T10:49:35.244Z,52.11
2022-10-10T10:52:03.211Z,51.93
2022-10-10T10:54:31.590Z,52.30
2022-10-10T10:57:06.432Z,52.44
2022-10-10T11:00:20.898Z,52.74
2022-10-10T11:02:43.427Z,52.36
2022-10-10T11:05:19.929Z,52.54
2022-10-10T11:07:55.864Z,52.80
2022-10-10T11:10:23.708Z,53.08
2022-10-10T11:12:51.544Z,52.87
2022-10-10T11:15:19.776Z,52.80
2022-10-10T11:17:47.776Z,53.00
2022-10-10T11:20:16.102Z,52.68
2022-10-10T11:22:46.333Z,52.31
2022-10-10T11:25:14.451Z,51.07
2022-10-10T11:27:42.219Z,50.37
2022-10-10T11:30:10.059Z,49.09
2022-10-10T11:32:38.153Z,49.40
2022-10-10T11:35:05.865Z,49.23
2022-10-10T11:37:33.677Z,49.32
2022-10-10T11:40:01.618Z,50.22
2022-10-10T11:42:29.307Z,49.85
2022-10-10T11:44:57.397Z,48.79
2022-10-10T11:47:25.245Z,49.58
2022-10-10T11:49:53.084Z,49.17
2022-10-10T11:52:33.559Z,48.95
2022-10-10T11:55:02.174Z,48.46
2022-10-10T11:57:29.904Z,47.71
2022-10-10T11:59:58.000Z,47.80
2022-10-10T12:02:27.957Z,47.83
2022-10-10T12:04:56.068Z,48.13
2022-10-10T12:07:24.803Z,48.95
2022-10-10T12:09:52.755Z,49.18
2022-10-10T12:12:20.524Z,49.38
2022-10-10T12:14:48.345Z,49.73
2022-10-10T12:17:16.263Z,50.11
2022-10-10T12:19:45.314Z,50.88
2022-10-10T12:22:18.711Z,51.07
2022-10-10T12:24:50.142Z,51.00
2022-10-10T12:27:18.180Z,51.27
2022-10-10T12:29:50.210Z,51.17
2022-10-10T12:32:18.917Z,50.80
2022-10-10T12:34:46.685Z,50.99
2022-10-10T12:37:14.459Z,51.37
2022-10-10T12:39:42.413Z,51.32
2022-10-10T12:42:10.650Z,51.72
2022-10-10T12:44:38.475Z,52.03
2022-10-10T12:47:06.918Z,52.12
2022-10-10T12:49:34.723Z,52.20
2022-10-10T12:52:02.447Z,52.48
2022-10-10T12:54:31.055Z,52.46
2022-10-10T12:56:58.842Z,52.53
2022-10-10T12:59:26.768Z,52.44
2022-10-10T13:01:54.930Z,51.90
2022-10-10T13:04:22.803Z,52.14
2022-10-10T13:06:51.347Z,51.90
2022-10-10T13:09:19.151Z,52.30
2022-10-10T13:11:46.981Z,52.23
2022-10-10T13:14:14.793Z,51.93
2022-10-10T13:16:42.778Z,51.75
2022-10-10T13:19:11.456Z,52.23
2022-10-10T13:21:39.234Z,51.83
2022-10-10T13:24:07.603Z,51.94
2022-10-10T13:26:35.465Z,51.93
2022-10-10T13:29:03.305Z,51.75
2022-10-10T13:31:31.603Z,52.43
2022-10-10T13:33:59.500Z,52.17
2022-10-10T13:36:27.363Z,52.11
2022-10-10T13:38:55.327Z,51.84
2022-10-10T13:41:23.232Z,52.09
2022-10-10T13:43:51.542Z,51.70
2022-10-10T13:46:19.776Z,52.26
2022-10-10T13:48:47.687Z,52.44
2022-10-10T13:51:15.432Z,52.69
2022-10-10T13:53:43.172Z,52.31
2022-10-10T13:56:11.360Z,52.35
2022-10-10T13:58:39.034Z,52.46
2022-10-10T14:01:07.270Z,51.91
2022-10-10T14:03:35.253Z,51.72
2022-10-10T14:06:03.132Z,51.58
2022-10-10T14:08:31.770Z,51.31
2022-10-10T14:10:59.676Z,51.44
2022-10-10T14:13:27.714Z,51.64
2022-10-10T14:15:56.019Z,51.70
2022-10-10T14:18:23.834Z,51.26
2022-10-10T14:20:52.363Z,50.51
2022-10-10T14:23:20.089Z,50.21
2022-10-10T14:25:48.094Z,50.86
2022-10-10T14:28:15.965Z,50.38
2022-10-10T14:30:44.284Z,50.59
2022-10-10T14:33:12.778Z,50.37
2022-10-10T14:35:40.622Z,50.75
2022-10-10T14:38:10.791Z,51.54
2022-10-10T14:40:38.510Z,52.20
2022-10-10T14:43:06.370Z,52.79
2022-10-10T14:45:34.537Z,53.34
2022-10-10T14:48:02.397Z,53.53
2022-10-10T14:50:30.260Z,53.33
2022-10-10T14:52:58.595Z,52.98
2022-10-10T14:55:26.274Z,52.99
2022-10-10T14:57:54.486Z,53.38
2022-10-10T15:00:22.265Z,53.33
2022-10-10T15:02:50.093Z,53.28
2022-10-10T15:05:17.999Z,53.44
2022-10-10T15:07:45.873Z,52.05
2022-10-10T15:13:02.666Z,50.29
2022-10-10T15:15:30.465Z,50.49
2022-10-10T15:17:58.466Z,50.51
2022-10-10T15:20:31.477Z,51.01
2022-10-10T15:22:59.529Z,51.93
2022-10-10T15:25:32.370Z,52.73
2022-10-10T15:28:01.510Z,53.45
2022-10-10T15:30:29.890Z,54.08
2022-10-10T15:32:58.025Z,54.39
2022-10-10T15:35:25.881Z,54.30
2022-10-10T15:37:53.657Z,54.81
2022-10-10T15:40:21.494Z,54.98
2022-10-10T15:42:49.529Z,55.61
2022-10-10T15:45:37.008Z,55.92
2022-10-10T15:48:05.443Z,55.72
2022-10-10T15:50:36.232Z,55.77
2022-10-10T15:53:06.009Z,55.92
2022-10-10T15:55:34.036Z,56.45
2022-10-10T15:58:04.254Z,56.65
2022-10-10T16:00:32.002Z,56.64
2022-10-10T16:02:59.957Z,56.75
2022-10-10T16:05:29.498Z,56.50
2022-10-10T16:07:57.664Z,56.79
2022-10-10T16:10:25.622Z,56.80
2022-10-10T16:12:53.459Z,57.03
2022-10-10T16:15:21.626Z,57.50
2022-10-10T16:17:49.584Z,57.18
2022-10-10T16:20:17.715Z,57.63
2022-10-10T16:22:45.515Z,57.45
2022-10-10T16:25:28.606Z,57.83
2022-10-10T16:27:56.888Z,57.73
2022-10-10T16:30:25.083Z,58.08
2022-10-10T16:32:52.885Z,57.49
2022-10-10T16:35:20.738Z,57.56
2022-10-10T16:37:48.668Z,57.53
2022-10-10T16:40:16.643Z,57.91
2022-10-10T16:42:44.575Z,57.58
2022-10-10T16:45:12.367Z,58.36
2022-10-10T16:47:40.255Z,58.45
2022-10-10T16:50:08.140Z,58.38
2022-10-10T16:52:38.538Z,58.49
2022-10-10T16:55:07.228Z,58.86
2022-10-10T16:57:35.478Z,58.88
2022-10-10T17:00:03.481Z,58.92
2022-10-10T17:02:31.327Z,59.40
2022-10-10T17:04:59.531Z,59.07
2022-10-10T17:07:27.728Z,59.19
2022-10-10T17:09:55.600Z,59.86
2022-10-10T17:12:23.553Z,59.44
2022-10-10T17:14:51.422Z,59.37
2022-10-10T17:17:19.955Z,60.29
2022-10-10T17:19:49.908Z,60.60
2022-10-10T17:22:17.780Z,60.63
2022-10-10T17:24:45.548Z,60.96
2022-10-10T17:27:13.499Z,61.71
2022-10-10T17:29:41.641Z,61.44
2022-10-10T17:32:09.756Z,61.50
2022-10-10T17:34:37.674Z,61.95
2022-10-10T17:37:05.562Z,61.84
2022-10-10T17:39:33.409Z,62.36
2022-10-10T17:42:04.848Z,62.30
2022-10-10T17:44:37.835Z,62.47
2022-10-10T17:47:08.201Z,63.13
2022-10-10T17:49:36.015Z,62.93
2022-10-10T17:52:04.120Z,62.18
2022-10-10T17:54:31.883Z,62.72
2022-10-10T17:57:00.140Z,62.90
2022-10-10T17:59:27.998Z,62.72
2022-10-10T18:01:55.785Z,62.97
2022-10-10T18:04:23.891Z,63.06
2022-10-10T18:06:51.695Z,63.16
2022-10-10T18:09:20.200Z,63.07
2022-10-10T18:11:48.071Z,62.87
2022-10-10T18:14:15.965Z,63.02
2022-10-10T18:16:44.961Z,63.69
2022-10-10T18:19:12.924Z,63.41
2022-10-10T18:21:41.113Z,63.95
2022-10-10T18:24:09.131Z,65.18
2022-10-10T18:26:37.158Z,65.76
2022-10-10T18:29:05.009Z,65.86
2022-10-10T18:31:33.419Z,66.39
2022-10-10T18:34:01.613Z,66.71
2022-10-10T18:36:29.426Z,67.33
2022-10-10T18:38:57.376Z,67.98
2022-10-10T18:41:25.549Z,67.91
2022-10-10T18:43:53.577Z,68.35
2022-10-10T18:46:22.635Z,68.31
2022-10-10T18:48:54.099Z,68.45
2022-10-10T18:51:22.824Z,68.37
2022-10-10T18:53:50.946Z,69.05
2022-10-10T18:56:21.401Z,69.13
2022-10-10T18:58:49.676Z,68.95
2022-10-10T19:01:21.125Z,68.87
2022-10-10T19:03:52.661Z,69.05
2022-10-10T19:06:20.589Z,69.10
2022-10-10T19:08:48.465Z,69.47
2022-10-10T19:11:16.856Z,68.87
2022-10-10T19:13:44.585Z,69.55
2022-10-10T19:16:12.720Z,69.01
2022-10-10T19:18:40.662Z,69.41
2022-10-10T19:21:08.453Z,69.48
2022-10-10T19:23:36.866Z,69.29
2022-10-10T19:26:04.838Z,69.29
2022-10-10T19:28:34.411Z,69.36
2022-10-10T19:31:02.580Z,69.27
2022-10-10T19:33:31.371Z,69.76
2022-10-10T19:35:59.493Z,69.51
2022-10-10T19:38:27.216Z,69.71
2022-10-10T19:40:55.074Z,69.18
2022-10-10T19:43:22.780Z,68.94
2022-10-10T19:45:51.471Z,69.26
2022-10-10T19:48:19.756Z,69.04
2022-10-10T19:50:47.914Z,69.43
2022-10-10T19:53:17.609Z,69.83
2022-10-10T19:55:46.364Z,69.18
2022-10-10T19:58:14.133Z,69.27
2022-10-10T20:00:42.307Z,70.22
2022-10-10T20:03:10.456Z,70.33
2022-10-10T20:05:38.729Z,69.91
2022-10-10T20:08:06.661Z,69.79
2022-10-10T20:10:34.576Z,70.44
2022-10-10T20:13:03.096Z,70.17
2022-10-10T20:15:30.975Z,70.46
2022-10-10T20:18:17.596Z,70.30
2022-10-10T20:20:45.363Z,70.62
2022-10-10T20:23:14.542Z,70.20
2022-10-10T20:25:42.429Z,70.39
2022-10-10T20:28:10.398Z,70.34
2022-10-10T20:36:57.800Z,70.45
2022-10-10T20:39:25.632Z,70.64
2022-10-10T20:41:53.335Z,70.35
2022-10-10T20:44:21.315Z,70.24
2022-10-10T20:46:49.334Z,70.55
2022-10-10T20:49:17.601Z,69.95
2022-10-10T20:51:48.872Z,70.64
2022-10-10T20:54:16.714Z,70.24
2022-10-10T20:56:46.156Z,69.76
2022-10-10T20:59:14.383Z,70.30
2022-10-10T21:01:42.865Z,70.25
2022-10-10T21:04:10.789Z,70.36
2022-10-10T21:06:38.602Z,70.34
2022-10-10T21:09:06.448Z,70.95
2022-10-10T21:11:34.162Z,71.13
2022-10-10T21:14:02.385Z,70.72
2022-10-10T21:16:30.191Z,71.00
2022-10-10T21:18:58.855Z,71.56
2022-10-10T21:21:27.257Z,71.98
2022-10-10T21:23:56.567Z,71.84
2022-10-10T21:26:25.079Z,71.88
2022-10-10T21:28:53.097Z,71.89
2022-10-10T21:31:20.966Z,72.08
2022-10-10T21:33:49.474Z,71.97
2022-10-10T21:36:17.385Z,71.66
2022-10-10T21:38:45.815Z,72.07
2022-10-10T21:41:13.705Z,71.99
2022-10-10T21:43:41.949Z,72.72
2022-10-10T21:46:09.701Z,72.46
2022-10-10T21:48:37.388Z,72.27
2022-10-10T21:51:05.517Z,72.71
2022-10-10T21:53:33.679Z,73.27
2022-10-10T21:56:01.639Z,72.65
2022-10-10T21:58:29.660Z,72.96
2022-10-10T22:00:57.401Z,73.52
2022-10-10T22:03:25.432Z,73.14
2022-10-10T22:05:53.360Z,72.89
2022-10-10T22:08:21.059Z,73.28
2022-10-10T22:10:48.708Z,73.26
2022-10-10T22:13:16.391Z,73.32
2022-10-10T22:15:44.600Z,73.40
2022-10-10T22:18:12.279Z,73.45
2022-10-10T22:20:39.889Z,73.55
2022-10-10T22:23:07.558Z,73.89
2022-10-10T22:25:35.269Z,73.75
2022-10-10T22:28:06.375Z,73.82
2022-10-10T22:30:34.174Z,74.00
2022-10-10T22:33:01.802Z,73.63
2022-10-10T22:35:29.556Z,73.67
2022-10-10T22:37:57.212Z,73.51
2022-10-10T22:40:26.551Z,73.89
2022-10-10T22:42:54.161Z,73.65
2022-10-10T22:45:21.733Z,73.81
2022-10-10T22:47:49.340Z,73.93
2022-10-10T22:50:16.981Z,73.65
2022-10-10T22:52:45.278Z,73.67
2022-10-10T22:55:17.980Z,73.65
2022-10-10T22:57:46.284Z,73.83
2022-10-10T23:00:13.875Z,73.77
2022-10-10T23:02:41.445Z,73.99
2022-10-10T23:05:09.405Z,73.91
2022-10-10T23:07:36.991Z,73.96
2022-10-10T23:10:04.566Z,73.96
2022-10-10T23:12:32.550Z,73.51
2022-10-10T23:15:00.174Z,73.60
2022-10-10T23:17:28.325Z,73.41
2022-10-10T23:19:55.943Z,73.53
2022-10-10T23:22:23.539Z,73.68
2022-10-10T23:24:51.078Z,74.05
2022-10-10T23:27:18.691Z,73.21
2022-10-10T23:29:46.637Z,73.66
2022-10-10T23:32:14.210Z,73.84
2022-10-10T23:34:42.284Z,73.80
2022-10-10T23:37:09.883Z,74.15
2022-10-10T23:39:37.502Z,74.28
2022-10-10T23:42:05.608Z,74.46
2022-10-10T23:44:33.155Z,74.09
2022-10-10T23:47:00.759Z,74.59
2022-10-10T23:49:28.394Z,74.77
2022-10-10T23:51:55.953Z,74.11
2022-10-10T23:54:23.690Z,74.65
2022-10-10T23:56:51.629Z,74.49
2022-10-10T23:59:19.217Z,74.96
